Terminal Aerodrome Forecast
Issued by NWS Cleveland, OH

Home | Current Version | Previous Version | Graphics & Text | Print | Product List | Glossary On
Versions: 1 2 3 4 5 6 7 8 9 10 11 12 13 14 15 16 17
000
FTUS41 KCLE 312324
TAFCAK
TAF
KCAK 312324Z 0100/0124 24010KT P6SM SCT060 OVC110
     FM010300 25006KT P6SM SKC
     FM011700 29010G18KT P6SM SCT050=

USA.gov is the U.S. government's official web portal to all federal, state and local government web resources and services.